Cedar Grove, NJ

1:55 PM EDT on October 02, 2014 (GMT -0400)
Teterboro | Change Station
CLOSE
Current Station
Airport
Location: Teterboro,
Elevation: 7 ft
Nearby Weather Stations

Elev 7 ft 40.86 °N, 74.06 °W | Updated 4 minutes ago

Overcast
Overcast
69 °F
Feels Like 69 °F
N
5
Wind Variable Wind from Variable

Today
High -- | Low -- °F
--% Chance of Precip.
Yesterday
High -- | Low -- °F
Precip. -- in
6:54 AM 6:37 PM
First Quarter, 61% visible
Pressure 30.10 in
Visibility 10.0 miles
Clouds Scattered Clouds 2700 ft
Overcast 4600 ft
Dew Point 53 °F
Humidity 57%
Rainfall 0.00 in
Snow Depth Not available.
UV 2 out of 12
Pollen 2.50 out of 12
Air Quality Not available.
Flu Activity Not available.
METAR KTEB 021751Z VRB04KT 10SM SCT027 OVC046 21/12 A3010 RMK AO2 SLP192 T02060117 10217 20161 58014

More Conditions Fewer Conditions

Pressure 30.10 in
Visibility 10.0 miles
Clouds Scattered Clouds 2700 ft
Overcast 4600 ft
Dew Point 53 °F
Humidity 57%
Rainfall 0.00 in
Snow Depth Not available.
UV 2 out of 12
Pollen 2.50 out of 12
Air Quality Not available.
Flu Activity Not available.
METAR KTEB 021751Z VRB04KT 10SM SCT027 OVC046 21/12 A3010 RMK AO2 SLP192 T02060117 10217 20161 58014

More Conditions Fewer Conditions

10-Day Weather Forecast

Almanac

Astronomy

Oct. 02, 2014 Rise Set
Actual Time 6:54 AM EDT 6:37 PM EDT
Civil Twilight 6:27 AM EDT 7:04 PM EDT
Nautical Twilight 5:55 AM EDT 7:36 PM EDT
Astronomical Twilight 5:23 AM EDT 8:08 PM EDT
Moon 2:43 PM EDT 12:06 AM EDT
Length of Visible Light 12h 37m
Length of Day
11h 42m
Tomorrow will be 2m 42s shorter.
First Quarter, 61% of the Moon is Illuminated
Today
First Quarter
Oct 8
Full
Oct 15
Last Quarter
Oct 23
New
Oct 30
First Quarter

Today's Extremes

State Highs State Lows

Community

WunderPhotos

Upload Photos

1,758,312 photos uploaded!

Nearby

Snow Depth

Station Depth Elevation
No new snow has been reported.

Earthquake Activity

City Distance Mag. Time & Date
No recent earthquake activity has been reported nearby.
Minimum magnitude displayed is 2.5.

Coastal Water Temperatures

Place Temperature
Sandy Hook, NJ 66.9 °F
The Battery, NY 69.1 °F
Bergen Point West Reach, NJ 68.0 °F

Nearby Weather Stations